Time;durP1;ratioP1;P1;durP2;ratioP2;P2;SDS_P1;SDS_P2;PMS_P1;PMS_P2;Temp;Humidity;BMP_temperature;BMP_pressure;BME280_temperature;BME280_humidity;BME280_pressure;Samples;Min_cycle;Max_cycle;Signal;HPM_P1;HPM_P2
2021/07/15 00:02:44;;;;;;;24.00;6.28;;;;;;;20.99;67.57;100087.81;1752503;82;21292;-81
2021/07/15 00:05:50;;;;;;;15.70;6.55;;;;;;;20.97;67.61;100079.70;1752175;82;21296;-80
2021/07/15 00:09:03;;;;;;;21.50;7.53;;;;;;;20.96;67.78;100083.59;1755157;81;21217;-80
2021/07/15 00:12:10;;;;;;;20.12;7.47;;;;;;;20.91;67.63;100078.77;1757928;81;21327;-80
2021/07/15 00:15:16;;;;;;;21.93;7.20;;;;;;;20.89;67.73;100080.97;1757080;81;21209;-80
2021/07/15 00:18:23;;;;;;;24.30;7.60;;;;;;;20.88;67.51;100079.26;1757826;81;21175;-80
2021/07/15 00:21:30;;;;;;;33.60;8.10;;;;;;;20.87;67.19;100078.13;1757755;81;21213;-80
2021/07/15 00:24:35;;;;;;;22.67;7.28;;;;;;;20.88;67.03;100073.70;1757401;81;21340;-80
2021/07/15 00:27:42;;;;;;;18.40;7.30;;;;;;;20.89;67.01;100074.58;1757601;81;21756;-79
2021/07/15 00:30:48;;;;;;;18.25;7.60;;;;;;;20.89;67.16;100071.25;1757730;81;21360;-80
2021/07/15 00:33:55;;;;;;;23.85;7.15;;;;;;;20.88;67.35;100080.65;1756209;81;21192;-80
2021/07/15 00:37:01;;;;;;;25.10;7.42;;;;;;;20.88;67.60;100077.87;1757818;81;21340;-80
2021/07/15 00:40:07;;;;;;;28.57;7.05;;;;;;;20.87;67.95;100078.13;1756692;81;21316;-80
2021/07/15 00:43:14;;;;;;;19.73;7.08;;;;;;;20.85;68.21;100079.78;1756150;81;21237;-80
2021/07/15 00:46:20;;;;;;;15.08;6.42;;;;;;;20.84;68.31;100078.10;1756239;81;21202;-81
2021/07/15 00:49:26;;;;;;;19.92;6.80;;;;;;;20.84;68.38;100078.10;1757768;81;21296;-80
2021/07/15 00:52:32;;;;;;;18.73;7.08;;;;;;;20.84;68.37;100077.23;1758264;81;21234;-80
2021/07/15 00:55:41;;;;;;;16.45;5.85;;;;;;;20.85;68.39;100083.11;1756910;81;21320;-80
2021/07/15 00:58:47;;;;;;;17.20;6.12;;;;;;;20.84;68.51;100075.84;1756281;81;21189;-80
2021/07/15 01:01:54;;;;;;;20.95;7.33;;;;;;;20.81;68.59;100078.59;1756207;81;21189;-80
2021/07/15 01:04:59;;;;;;;16.48;6.00;;;;;;;20.82;68.66;100076.65;1757461;81;21910;-80
2021/07/15 01:08:05;;;;;;;18.17;6.90;;;;;;;20.81;68.75;100080.53;1757039;81;21279;-80
2021/07/15 01:11:33;;;;;;;24.00;7.15;;;;;;;20.79;68.83;100079.92;1756260;81;21170;-81
2021/07/15 01:14:51;;;;;;;17.35;6.37;;;;;;;20.76;68.88;100077.11;1757795;81;21316;-80
2021/07/15 01:18:18;;;;;;;15.65;6.00;;;;;;;20.73;68.93;100079.53;1756240;81;21177;-81
2021/07/15 01:21:56;;;;;;;14.40;6.12;;;;;;;20.68;68.97;100069.16;1757632;81;21728;-81
2021/07/15 01:25:38;;;;;;;26.02;6.78;;;;;;;20.68;68.92;100073.33;1756383;81;21264;-80
2021/07/15 01:29:29;;;;;;;16.85;5.78;;;;;;;20.66;68.81;100068.03;1756301;81;21828;-80
2021/07/15 01:32:42;;;;;;;18.35;6.65;;;;;;;20.63;68.87;100067.67;1757573;81;21293;-80
2021/07/15 01:36:04;;;;;;;25.37;6.80;;;;;;;20.59;68.95;100066.48;1757205;81;21245;-81
2021/07/15 01:39:16;;;;;;;18.17;6.83;;;;;;;20.57;68.95;100061.19;1757434;81;21336;-81
2021/07/15 01:42:22;;;;;;;16.57;6.72;;;;;;;20.54;68.96;100067.22;1757878;81;21750;-80
2021/07/15 01:45:28;;;;;;;17.57;5.85;;;;;;;20.51;69.08;100069.09;1757528;81;21336;-80
2021/07/15 01:48:34;;;;;;;16.73;6.60;;;;;;;20.50;69.12;100065.19;1757870;81;21233;-80
2021/07/15 01:51:39;;;;;;;18.57;6.37;;;;;;;20.47;69.16;100065.16;1757833;81;21892;-80
2021/07/15 01:54:50;;;;;;;15.78;5.55;;;;;;;20.47;68.95;100065.16;1757820;81;21300;-80
2021/07/15 01:57:52;;;;;;;13.32;5.50;;;;;;;20.48;68.83;100067.38;1757333;81;21231;-81
2021/07/15 02:00:58;;;;;;;14.38;5.95;;;;;;;20.46;68.84;100065.34;1757808;81;21181;-80
2021/07/15 02:04:05;;;;;;;25.48;5.92;;;;;;;20.44;68.80;100061.44;1757841;81;21305;-80
2021/07/15 02:07:11;;;;;;;16.62;5.67;;;;;;;20.44;68.76;100060.05;1758219;81;21335;-81
2021/07/15 02:10:19;;;;;;;15.80;6.33;;;;;;;20.47;68.77;100054.56;1752958;81;21756;-81
2021/07/15 02:13:25;;;;;;;21.33;4.65;;;;;;;20.53;68.54;100053.59;1751475;82;21442;-81
2021/07/15 02:16:31;;;;;;;15.23;5.25;;;;;;;20.63;68.35;100047.67;1751509;82;21316;-80
2021/07/15 02:19:37;;;;;;;19.17;5.72;;;;;;;20.76;67.92;100053.48;1791119;80;21181;-81
2021/07/15 02:22:44;;;;;;;10.03;4.70;;;;;;;20.93;67.55;100056.27;1792542;80;21305;-81
2021/07/15 02:25:50;;;;;;;15.85;5.53;;;;;;;21.14;67.09;100055.55;1792461;80;21371;-81
2021/07/15 02:28:56;;;;;;;14.05;5.90;;;;;;;21.42;66.36;100051.03;1791573;80;21329;-81
2021/07/15 02:32:07;;;;;;;22.22;5.97;;;;;;;21.76;65.40;100057.95;1792603;80;21319;-81
2021/07/15 02:35:16;;;;;;;18.60;6.47;;;;;;;22.08;64.37;100057.56;1793025;80;21745;-81
2021/07/15 02:38:25;;;;;;;22.62;5.85;;;;;;;22.44;63.30;100054.72;1750684;81;21424;-81
2021/07/15 02:41:31;;;;;;;19.02;5.70;;;;;;;22.85;62.10;100055.70;1752240;82;21717;-81
2021/07/15 02:44:39;;;;;;;10.45;5.05;;;;;;;23.24;60.81;100055.53;1791206;80;21194;-81
2021/07/15 02:47:49;;;;;;;12.23;4.83;;;;;;;23.61;59.45;100061.13;1791218;80;21836;-81
2021/07/15 02:50:56;;;;;;;19.70;4.78;;;;;;;24.02;58.11;100061.42;1791035;80;21146;-81
2021/07/15 02:54:02;;;;;;;13.58;4.30;;;;;;;24.37;57.02;100064.95;1792511;80;21171;-81
2021/07/15 02:57:29;;;;;;;18.92;5.10;;;;;;;24.66;56.20;100064.80;1791102;80;22464;-81
2021/07/15 03:00:35;;;;;;;10.75;5.10;;;;;;;24.92;55.29;100062.88;1792593;80;21288;-81
2021/07/15 03:04:14;;;;;;;12.40;4.78;;;;;;;25.22;54.47;100062.12;1791222;80;21281;-82
2021/07/15 03:07:19;;;;;;;19.92;5.40;;;;;;;25.49;53.77;100067.98;1791900;80;21780;-81
2021/07/15 03:10:28;;;;;;;20.12;5.50;;;;;;;25.78;52.70;100069.66;1791914;80;21320;-81
2021/07/15 03:13:33;;;;;;;13.43;5.58;;;;;;;25.94;52.23;100067.69;1792400;80;21312;-81
2021/07/15 03:16:40;;;;;;;15.40;5.80;;;;;;;26.03;51.94;100068.78;1790948;80;21227;-81
2021/07/15 03:19:47;;;;;;;16.93;5.62;;;;;;;26.05;52.04;100069.89;1753093;82;21264;-81
2021/07/15 03:22:55;;;;;;;15.53;5.45;;;;;;;26.07;52.23;100077.47;1751106;81;21189;-81
2021/07/15 03:26:02;;;;;;;15.78;5.72;;;;;;;26.05;52.60;100081.94;1752057;82;21849;-81
2021/07/15 03:29:12;;;;;;;15.32;6.40;;;;;;;26.04;52.78;100081.66;1750606;81;21289;-81
2021/07/15 03:32:17;;;;;;;20.45;6.25;;;;;;;26.03;53.21;100078.59;1792534;80;21332;-81
2021/07/15 03:35:23;;;;;;;17.57;6.42;;;;;;;26.10;53.35;100079.68;1792398;80;21335;-82
2021/07/15 03:38:29;;;;;;;20.27;7.10;;;;;;;26.16;53.44;100070.99;1791238;80;21297;-81
2021/07/15 03:41:34;;;;;;;23.25;6.60;;;;;;;26.27;53.46;100070.38;1792420;80;21315;-81
2021/07/15 03:44:39;;;;;;;22.05;7.10;;;;;;;26.39;53.30;100072.28;1791848;80;21323;-81
2021/07/15 03:47:45;;;;;;;19.70;7.15;;;;;;;26.46;53.11;100072.02;1791648;80;21866;-81
2021/07/15 03:50:51;;;;;;;23.25;7.80;;;;;;;26.45;53.20;100071.75;1792698;80;21320;-81
2021/07/15 03:53:56;;;;;;;18.48;7.53;;;;;;;26.37;53.64;100075.11;1790969;80;21292;-80
2021/07/15 03:57:02;;;;;;;12.82;6.28;;;;;;;26.33;54.15;100079.61;1790847;80;21196;-81
2021/07/15 04:00:08;;;;;;;17.82;6.12;;;;;;;26.33;54.06;100079.05;1791644;80;21918;-81
2021/07/15 04:03:14;;;;;;;24.87;6.72;;;;;;;26.34;54.19;100084.08;1790932;80;21291;-81
2021/07/15 04:06:21;;;;;;;15.38;5.75;;;;;;;26.38;54.10;100076.78;1792419;80;21159;-80
2021/07/15 04:09:27;;;;;;;14.43;5.42;;;;;;;26.42;54.24;100079.30;1790809;80;21247;-81
2021/07/15 04:12:34;;;;;;;23.67;5.70;;;;;;;26.37;53.55;100082.12;1792876;80;21205;-81
2021/07/15 04:16:08;;;;;;;12.18;5.53;;;;;;;26.32;53.64;100089.15;1793915;79;21806;-81
2021/07/15 04:19:13;;;;;;;11.90;5.62;;;;;;;26.31;53.87;100088.88;1793895;80;22590;-81
2021/07/15 04:22:19;;;;;;;17.67;5.20;;;;;;;26.32;53.80;100087.18;1794031;80;21292;-80
2021/07/15 04:25:27;;;;;;;11.85;5.37;;;;;;;26.29;53.53;100089.71;1745038;82;21843;-80
2021/07/15 04:28:32;;;;;;;11.73;5.00;;;;;;;26.21;54.21;100083.59;1743348;82;21866;-80
2021/07/15 04:32:05;;;;;;;18.30;4.83;;;;;;;26.29;54.09;100089.71;1744595;82;21326;-80
2021/07/15 04:35:10;;;;;;;16.82;5.05;;;;;;;26.30;53.64;100092.25;1744509;82;21307;-80
2021/07/15 04:38:16;;;;;;;8.33;4.45;;;;;;;26.39;53.54;100088.27;1713796;81;21189;-80
2021/07/15 04:41:21;;;;;;;11.90;4.20;;;;;;;26.50;53.19;100094.16;1741193;82;21303;-80
2021/07/15 04:44:27;;;;;;;11.22;4.28;;;;;;;26.64;52.36;100095.78;1741182;82;21304;-80
2021/07/15 04:47:33;;;;;;;13.65;4.70;;;;;;;26.73;52.19;100103.88;1741090;82;21304;-80
2021/07/15 04:50:40;;;;;;;11.73;5.17;;;;;;;26.85;51.89;100106.31;1726528;83;21946;-80
2021/07/15 04:53:45;;;;;;;13.15;4.42;;;;;;;26.98;51.94;100109.89;1727525;83;21155;-80
2021/07/15 04:56:51;;;;;;;15.43;4.95;;;;;;;27.08;51.09;100112.66;1727508;83;21296;-80
2021/07/15 04:59:56;;;;;;;17.02;5.08;;;;;;;27.18;52.04;100113.16;1727429;83;21272;-82
2021/07/15 05:03:07;;;;;;;13.55;4.10;;;;;;;27.38;51.58;100112.16;1711664;83;21356;-81
2021/07/15 05:06:14;;;;;;;8.68;3.83;;;;;;;27.51;49.54;100105.31;1711481;84;21872;-80
2021/07/15 05:09:19;;;;;;;13.88;4.17;;;;;;;27.62;49.10;100103.28;1710947;84;21231;-80
2021/07/15 05:12:25;;;;;;;11.70;4.20;;;;;;;27.68;48.92;100113.33;1710828;83;21326;-80
2021/07/15 05:15:30;;;;;;;14.50;4.05;;;;;;;27.73;49.39;100107.69;1700016;84;21366;-80
2021/07/15 05:18:28;;;;;;;11.35;4.25;;;;;;;27.84;48.79;100114.05;1699674;84;21201;-80
2021/07/15 05:21:20;;;;;;;8.40;3.87;;;;;;;27.96;48.93;100108.88;1700021;84;21201;-80
2021/07/15 05:24:07;;;;;;;18.62;4.83;;;;;;;28.12;48.87;100107.30;1698616;83;21206;-80
2021/07/15 05:26:59;;;;;;;11.68;3.83;;;;;;;28.25;48.92;100114.47;1700183;84;21838;-80
2021/07/15 05:30:05;;;;;;;6.42;3.15;;;;;;;28.34;46.96;100118.90;1712032;83;21142;-81
2021/07/15 05:33:11;;;;;;;10.03;3.75;;;;;;;28.42;47.00;100115.44;1711562;83;21282;-81
2021/07/15 05:36:18;;;;;;;7.58;3.72;;;;;;;28.49;44.45;100113.66;1758970;81;21166;-81
2021/07/15 05:39:24;;;;;;;7.08;4.05;;;;;;;28.52;43.89;100117.28;1729503;82;21313;-78
2021/07/15 05:42:30;;;;;;;11.28;3.95;;;;;;;28.61;45.19;100107.61;1737588;82;21183;-80
2021/07/15 05:45:35;;;;;;;9.83;4.65;;;;;;;28.70;45.05;100113.67;1741823;81;21799;-79
2021/07/15 05:48:41;;;;;;;8.98;3.47;;;;;;;28.85;46.09;100117.42;1744196;81;21210;-80
2021/07/15 05:51:46;;;;;;;10.20;3.67;;;;;;;28.98;46.16;100115.27;1735126;82;21224;-80
2021/07/15 05:55:00;;;;;;;11.95;3.72;;;;;;;29.10;46.90;100122.70;1714364;82;21299;-80
2021/07/15 05:58:05;;;;;;;8.85;3.55;;;;;;;29.21;46.29;100109.30;1732920;82;21287;-80
2021/07/15 06:01:11;;;;;;;15.25;4.60;;;;;;;29.39;46.59;100111.84;1734629;82;21276;-80
2021/07/15 06:04:17;;;;;;;8.98;4.33;;;;;;;29.53;46.42;100114.98;1736928;82;21288;-80
2021/07/15 06:07:22;;;;;;;7.25;2.90;;;;;;;29.72;46.68;100116.38;1730921;82;21315;-80
2021/07/15 06:10:27;;;;;;;15.15;4.00;;;;;;;30.00;43.73;100113.05;1723613;82;21827;-80
2021/07/15 06:13:33;;;;;;;14.35;3.33;;;;;;;30.00;43.73;100113.05;1722585;82;21290;-80
2021/07/15 06:16:39;;;;;;;12.03;3.47;;;;;;;29.88;41.94;100108.51;1727249;82;21192;-80
2021/07/15 06:19:44;;;;;;;13.55;3.25;;;;;;;29.88;41.94;100108.51;1729777;82;21941;-80
2021/07/15 06:22:50;;;;;;;10.78;3.02;;;;;;;29.92;42.06;100110.11;1725484;82;21220;-80
2021/07/15 06:25:56;;;;;;;7.80;3.05;;;;;;;29.98;43.32;100108.89;1724501;82;21180;-80
2021/07/15 06:29:02;;;;;;;15.80;3.12;;;;;;;30.09;43.30;100105.30;1740522;82;21867;-80
2021/07/15 06:32:07;;;;;;;15.78;3.30;;;;;;;30.20;42.68;100107.63;1734034;81;21339;-80
2021/07/15 06:35:15;;;;;;;6.55;3.05;;;;;;;30.34;42.38;100106.22;1731620;82;21176;-80
2021/07/15 06:38:21;;;;;;;6.35;2.87;;;;;;;30.53;41.25;100104.13;1727312;82;21285;-80
2021/07/15 06:41:26;;;;;;;16.65;3.80;;;;;;;30.66;41.52;100104.45;1728487;82;21291;-80
2021/07/15 06:44:31;;;;;;;11.30;3.10;;;;;;;30.76;40.87;100098.02;1718799;82;21319;-80
2021/07/15 06:47:39;;;;;;;4.95;2.72;;;;;;;30.88;40.89;100098.91;1722038;82;21197;-81
2021/07/15 06:50:44;;;;;;;11.83;2.70;;;;;;;30.98;39.51;100099.25;1734665;82;21358;-80
2021/07/15 06:53:51;;;;;;;10.78;2.80;;;;;;;31.10;41.04;100096.72;1737859;82;21567;-80
2021/07/15 06:56:57;;;;;;;4.53;2.10;;;;;;;31.13;38.32;100096.64;1734076;82;21165;-80
2021/07/15 07:00:04;;;;;;;5.25;2.40;;;;;;;31.14;38.40;100099.14;1725004;82;21327;-81
2021/07/15 07:03:12;;;;;;;10.53;3.00;;;;;;;31.19;37.74;100091.95;1718339;82;22752;-81
2021/07/15 07:06:16;;;;;;;5.53;1.92;;;;;;;31.23;38.13;100101.46;1719843;82;21775;-81
2021/07/15 07:09:22;;;;;;;9.23;2.08;;;;;;;31.28;38.09;100094.30;1731775;82;22220;-80
2021/07/15 07:12:26;;;;;;;12.40;2.30;;;;;;;31.26;38.08;100103.66;1725446;82;21169;-81
2021/07/15 07:15:32;;;;;;;4.35;1.90;;;;;;;31.28;37.19;100099.13;1733018;82;21379;-80
2021/07/15 07:18:37;;;;;;;12.65;2.40;;;;;;;31.28;37.66;100099.95;1722684;82;21314;-80
2021/07/15 07:21:44;;;;;;;9.48;1.90;;;;;;;31.41;37.91;100093.17;1722336;82;21287;-81
2021/07/15 07:24:50;;;;;;;4.85;1.70;;;;;;;31.49;37.95;100094.66;1719201;82;21271;-81
2021/07/15 07:27:55;;;;;;;9.93;1.80;;;;;;;31.48;36.74;100097.81;1724352;82;21331;-80
2021/07/15 07:30:59;;;;;;;10.03;2.10;;;;;;;31.43;34.45;100088.88;1726802;82;21593;-80
2021/07/15 07:34:06;;;;;;;4.60;1.50;;;;;;;31.33;36.11;100093.34;1778218;79;21318;-80
2021/07/15 07:37:12;;;;;;;8.15;1.45;;;;;;;31.36;37.25;100094.13;1770846;79;21161;-80
2021/07/15 07:40:18;;;;;;;5.08;1.60;;;;;;;31.38;35.92;100088.14;1779026;79;21833;-80
2021/07/15 07:43:23;;;;;;;8.63;2.37;;;;;;;31.48;36.85;100090.75;1788479;79;21556;-81
2021/07/15 07:46:29;;;;;;;5.17;1.60;;;;;;;31.55;35.08;100089.12;1778578;79;21293;-80
2021/07/15 07:49:36;;;;;;;6.95;1.67;;;;;;;31.58;34.55;100084.00;1779291;79;21378;-81
2021/07/15 07:52:41;;;;;;;3.05;1.30;;;;;;;31.60;34.53;100090.15;1781651;79;21331;-80
2021/07/15 07:55:46;;;;;;;10.38;1.70;;;;;;;31.62;33.55;100083.58;1778673;79;21798;-80
2021/07/15 07:58:52;;;;;;;4.75;1.50;;;;;;;31.66;32.73;100086.85;1770290;79;21308;-81
2021/07/15 08:01:58;;;;;;;5.70;1.60;;;;;;;31.70;33.52;100087.05;1768164;79;21298;-80
2021/07/15 08:05:05;;;;;;;8.15;1.45;;;;;;;31.73;34.49;100089.24;1773728;79;21280;-80
2021/07/15 08:08:12;;;;;;;13.78;1.60;;;;;;;31.78;33.26;100085.70;1783868;79;21284;-79
2021/07/15 08:11:19;;;;;;;7.60;1.90;;;;;;;31.81;33.79;100085.06;1769888;79;21414;-79
2021/07/15 08:14:25;;;;;;;9.55;1.50;;;;;;;31.89;32.24;100085.45;1786079;79;21169;-80
2021/07/15 08:17:31;;;;;;;11.60;1.72;;;;;;;31.90;33.67;100081.45;1805262;79;21323;-80
2021/07/15 08:20:37;;;;;;;11.03;1.50;;;;;;;31.89;34.17;100085.45;1797841;79;22560;-80
2021/07/15 08:23:44;;;;;;;6.22;1.32;;;;;;;31.90;34.88;100081.45;1786917;79;21286;-80
2021/07/15 08:26:50;;;;;;;9.28;1.50;;;;;;;31.93;32.89;100075.16;1795095;79;21905;-80
2021/07/15 08:29:57;;;;;;;10.45;1.27;;;;;;;31.98;33.51;100079.26;1788320;79;21169;-80
2021/07/15 08:33:02;;;;;;;11.55;1.42;;;;;;;31.94;32.45;100072.00;1788437;79;21314;-80
2021/07/15 08:36:07;;;;;;;3.62;1.20;;;;;;;31.94;32.43;100071.17;1790394;79;21168;-81
2021/07/15 08:39:14;;;;;;;8.98;1.65;;;;;;;31.95;32.21;100068.62;1791085;79;21341;-80
2021/07/15 08:42:20;;;;;;;4.85;1.35;;;;;;;31.96;33.01;100070.28;1783617;79;21219;-80
2021/07/15 08:45:25;;;;;;;3.35;1.05;;;;;;;32.03;34.16;100067.80;1794073;79;21914;-80
2021/07/15 08:48:31;;;;;;;10.80;1.70;;;;;;;32.11;32.49;100063.36;1791606;79;21338;-80
2021/07/15 08:51:36;;;;;;;8.70;1.85;;;;;;;32.11;32.62;100058.53;1805421;79;21173;-80
2021/07/15 08:54:55;;;;;;;2.67;1.40;;;;;;;32.05;33.33;100062.67;1793809;79;21287;-80
2021/07/15 08:57:54;;;;;;;7.80;1.62;;;;;;;32.00;33.89;100052.92;1788114;79;21161;-80
2021/07/15 09:00:59;;;;;;;3.62;1.80;;;;;;;31.99;32.85;100052.05;1793825;79;21857;-81
2021/07/15 09:04:06;;;;;;;4.58;1.98;;;;;;;32.08;33.45;100049.85;1789476;79;21298;-80
2021/07/15 09:07:11;;;;;;;24.07;2.47;;;;;;;32.18;35.36;100051.80;1792141;79;21651;-81
2021/07/15 09:10:18;;;;;;;8.93;2.02;;;;;;;32.15;30.72;100048.23;1788915;79;21818;-81
2021/07/15 09:13:24;;;;;;;6.97;1.82;;;;;;;32.12;33.49;100050.29;1794125;79;21179;-81
2021/07/15 09:16:31;;;;;;;7.83;1.80;;;;;;;32.17;33.11;100050.14;1786950;79;21779;-81
2021/07/15 09:19:38;;;;;;;8.05;2.00;;;;;;;32.26;33.01;100048.77;1793180;79;21140;-81
2021/07/15 09:23:09;;;;;;;8.58;1.95;;;;;;;32.29;32.47;100039.05;1788572;79;21235;-81
2021/07/15 09:26:15;;;;;;;6.47;1.60;;;;;;;32.31;31.90;100042.37;1787643;79;21280;-80
2021/07/15 09:29:24;;;;;;;9.38;1.70;;;;;;;32.35;29.38;100044.55;1795643;79;21287;-81
2021/07/15 09:32:28;;;;;;;6.63;1.37;;;;;;;32.40;30.30;100045.27;1792595;79;21196;-81
2021/07/15 09:35:44;;;;;;;6.55;1.62;;;;;;;32.40;31.92;100050.09;1793404;79;22491;-80
2021/07/15 09:38:51;;;;;;;7.83;1.75;;;;;;;32.36;31.82;100037.72;1789154;79;21188;-81
2021/07/15 09:42:18;;;;;;;13.13;1.72;;;;;;;32.32;31.00;100034.70;1793906;79;21287;-81
2021/07/15 09:45:24;;;;;;;6.05;1.60;;;;;;;32.35;32.61;100038.89;1795220;79;21173;-80
2021/07/15 09:48:36;;;;;;;5.10;1.70;;;;;;;32.35;31.37;100034.64;1775608;80;21778;-80
2021/07/15 09:51:47;;;;;;;7.00;2.02;;;;;;;32.34;33.27;100041.48;1800913;79;21137;-81
2021/07/15 09:54:53;;;;;;;4.58;1.50;;;;;;;32.33;33.14;100031.33;1789727;79;21322;-81
2021/07/15 09:58:17;;;;;;;9.88;1.70;;;;;;;32.35;31.86;100036.06;1790160;79;21903;-80
2021/07/15 10:01:28;;;;;;;9.13;1.65;;;;;;;32.39;33.68;100028.62;1794416;79;21137;-80
2021/07/15 10:04:35;;;;;;;6.50;1.60;;;;;;;32.41;33.85;100031.94;1786320;79;21299;-80
2021/07/15 10:07:40;;;;;;;5.75;1.40;;;;;;;32.35;32.73;100036.06;1809525;79;21224;-80
2021/07/15 10:10:45;;;;;;;7.30;1.70;;;;;;;32.31;31.06;100040.95;1805025;79;21299;-80
2021/07/15 10:13:56;;;;;;;5.75;1.62;;;;;;;32.33;30.61;100036.98;1776841;80;21193;-80
2021/07/15 10:17:02;;;;;;;7.30;1.20;;;;;;;32.42;30.85;100032.19;1776540;80;21223;-79
2021/07/15 10:20:23;;;;;;;6.85;1.57;;;;;;;32.50;30.28;100022.30;1752284;80;21223;-80
2021/07/15 10:23:49;;;;;;;8.70;1.80;;;;;;;32.59;31.67;100022.33;1733808;82;21244;-80
2021/07/15 10:26:57;;;;;;;6.85;1.55;;;;;;;32.63;33.05;100025.34;1691867;85;21235;-80
2021/07/15 10:30:03;;;;;;;4.03;1.20;;;;;;;32.54;30.77;100026.15;1733035;82;21232;-79
2021/07/15 10:33:08;;;;;;;8.83;1.85;;;;;;;32.49;30.45;100024.06;1698493;83;21351;-80
2021/07/15 10:36:14;;;;;;;9.30;1.40;;;;;;;32.45;32.10;100019.63;1714622;83;21262;-80
2021/07/15 10:39:23;;;;;;;4.78;1.47;;;;;;;32.50;30.48;100018.64;1712916;83;21335;-81
2021/07/15 10:42:28;;;;;;;7.22;1.55;;;;;;;32.58;31.00;100017.00;1712642;82;21158;-80
2021/07/15 10:45:34;;;;;;;10.75;1.52;;;;;;;32.58;29.48;100012.76;1731926;82;21570;-81
2021/07/15 10:48:43;;;;;;;9.48;2.10;;;;;;;32.58;29.65;100006.52;1739247;82;21383;-82
2021/07/15 10:51:51;;;;;;;7.53;1.30;;;;;;;32.64;30.22;100013.67;1729614;82;21346;-82
2021/07/15 10:54:57;;;;;;;8.43;1.20;;;;;;;32.61;29.62;100007.83;1690679;84;22522;-82
2021/07/15 10:58:05;;;;;;;5.78;1.45;;;;;;;32.58;29.65;100003.68;1737143;82;21289;-82
2021/07/15 11:01:10;;;;;;;13.68;1.70;;;;;;;32.52;29.61;100004.42;1724729;82;21253;-82
2021/07/15 11:04:24;;;;;;;4.87;0.90;;;;;;;32.50;29.93;99999.66;1741965;81;21244;-81
2021/07/15 11:07:35;;;;;;;5.30;1.57;;;;;;;32.55;31.01;100001.50;1730462;82;21311;-81
2021/07/15 11:10:41;;;;;;;8.10;1.30;;;;;;;32.46;30.15;99994.41;1740831;82;21553;-82
2021/07/15 11:13:47;;;;;;;9.85;2.17;;;;;;;32.45;28.74;99988.50;1727857;82;21300;-81
2021/07/15 11:17:02;;;;;;;5.30;1.22;;;;;;;32.49;31.40;99990.09;1735672;82;21153;-82
2021/07/15 11:20:20;;;;;;;6.35;1.35;;;;;;;32.54;30.67;99989.94;1743066;81;21293;-81
2021/07/15 11:23:27;;;;;;;10.53;1.47;;;;;;;32.63;31.35;99989.95;1780426;79;21191;-81
2021/07/15 11:26:41;;;;;;;5.83;1.60;;;;;;;32.70;32.27;99982.64;1777552;79;21303;-81
2021/07/15 11:29:56;;;;;;;3.42;1.22;;;;;;;32.70;30.28;99982.64;1779860;79;21145;-81
2021/07/15 11:33:03;;;;;;;16.82;1.82;;;;;;;32.71;29.77;99974.97;1780747;79;21181;-82
2021/07/15 11:36:21;;;;;;;5.47;1.50;;;;;;;32.76;28.96;99972.80;1783431;79;21263;-81
2021/07/15 11:39:31;;;;;;;6.55;1.65;;;;;;;32.74;29.59;99973.70;1784479;79;21291;-82
2021/07/15 11:42:37;;;;;;;4.55;1.77;;;;;;;32.70;33.14;99981.22;1766480;79;21342;-81
2021/07/15 11:46:03;;;;;;;7.15;1.82;;;;;;;32.62;32.71;99974.97;1779753;79;21216;-82
2021/07/15 11:49:26;;;;;;;7.62;1.30;;;;;;;32.59;29.94;99972.78;1781722;79;21193;-81
2021/07/15 11:52:30;;;;;;;2.80;1.20;;;;;;;32.60;30.13;99974.44;1779032;79;21283;-81
2021/07/15 11:55:38;;;;;;;8.58;1.50;;;;;;;32.64;31.95;99974.62;1779473;79;21843;-82
2021/07/15 11:58:51;;;;;;;6.25;1.40;;;;;;;32.56;31.20;99972.05;1781413;79;21327;-83
2021/07/15 12:02:10;;;;;;;5.45;1.57;;;;;;;32.49;29.91;99968.28;1774520;79;21327;-83
2021/07/15 12:05:38;;;;;;;6.50;1.17;;;;;;;32.45;29.44;99959.36;1765093;79;21267;-83
2021/07/15 12:08:43;;;;;;;7.15;1.42;;;;;;;32.46;32.12;99966.69;1789372;79;21932;-82
2021/07/15 12:11:49;;;;;;;12.10;1.27;;;;;;;32.44;31.23;99964.78;1775395;79;21295;-82
2021/07/15 12:15:02;;;;;;;6.35;1.60;;;;;;;32.46;30.15;99964.69;1780213;79;21720;-81
2021/07/15 12:18:25;;;;;;;6.65;1.20;;;;;;;32.47;28.86;99962.72;1784522;79;21280;-81
2021/07/15 12:21:31;;;;;;;12.88;1.70;;;;;;;32.45;28.41;99960.20;1799209;79;21359;-82
2021/07/15 12:24:37;;;;;;;10.60;1.47;;;;;;;32.47;29.55;99958.47;1773960;79;21184;-81
2021/07/15 12:27:54;;;;;;;7.42;1.35;;;;;;;32.44;33.08;99963.37;1776510;79;22418;-81
2021/07/15 12:31:03;;;;;;;11.05;1.40;;;;;;;32.45;31.99;99957.95;1785144;79;21709;-81
2021/07/15 12:34:14;;;;;;;11.65;1.42;;;;;;;32.44;28.89;99951.46;1782842;79;21271;-81
2021/07/15 12:37:20;;;;;;;8.28;2.05;;;;;;;32.44;29.11;99949.22;1780456;79;21321;-82
2021/07/15 12:40:25;;;;;;;9.00;1.45;;;;;;;32.47;30.54;99946.56;1781147;79;21153;-82
2021/07/15 12:43:30;;;;;;;7.47;1.32;;;;;;;32.51;30.50;99945.30;1789993;79;21318;-82
2021/07/15 12:46:41;;;;;;;7.12;1.35;;;;;;;32.54;29.91;99946.06;1777466;78;21457;-82
2021/07/15 12:49:48;;;;;;;6.50;1.20;;;;;;;32.56;28.64;99942.33;1773084;79;21926;-82
2021/07/15 12:52:53;;;;;;;4.92;1.70;;;;;;;32.61;29.19;99944.99;1769000;81;21746;-82
2021/07/15 12:56:05;;;;;;;12.70;1.85;;;;;;;32.64;29.82;99944.31;1768208;79;21170;-82
2021/07/15 12:59:16;;;;;;;6.55;1.65;;;;;;;32.63;31.51;99945.48;1769710;80;21330;-82
2021/07/15 13:02:24;;;;;;;2.30;1.27;;;;;;;32.61;30.76;99937.92;1781967;79;21161;-82
2021/07/15 13:05:30;;;;;;;5.05;1.20;;;;;;;32.61;30.26;99940.75;1760738;79;21330;-82
2021/07/15 13:09:01;;;;;;;1.62;1.27;;;;;;;32.61;30.27;99937.92;1782143;79;21280;-83
2021/07/15 13:15:26;;;;;;;2.42;1.10;;;;;;;32.56;27.96;99936.67;1779089;79;21807;-82
2021/07/15 13:18:33;;;;;;;1.87;0.90;;;;;;;32.56;28.00;99933.84;1789218;79;21747;-81
2021/07/15 13:21:38;;;;;;;3.83;1.50;;;;;;;32.57;28.60;99936.91;1778915;79;21251;-81
2021/07/15 13:24:44;;;;;;;8.20;1.20;;;;;;;32.56;29.08;99932.42;1761423;79;21189;-81
2021/07/15 13:27:50;;;;;;;9.78;1.25;;;;;;;32.53;28.75;99930.25;1790966;79;21769;-82
2021/07/15 13:30:57;;;;;;;5.08;1.42;;;;;;;32.50;31.02;99932.31;1789439;79;21303;-82
2021/07/15 13:34:03;;;;;;;12.03;1.77;;;;;;;32.44;29.55;99933.65;1792291;79;21280;-82
2021/07/15 13:37:11;;;;;;;7.05;1.15;;;;;;;32.42;29.61;99927.47;1798667;79;21306;-82
2021/07/15 13:40:39;;;;;;;3.20;1.20;;;;;;;32.40;30.00;99922.73;1778617;79;21296;-82
2021/07/15 13:43:45;;;;;;;4.35;1.25;;;;;;;32.35;30.25;99928.53;1795023;79;21802;-82
2021/07/15 13:46:50;;;;;;;4.20;1.60;;;;;;;32.29;29.14;99921.62;1788957;79;21295;-82
2021/07/15 13:50:10;;;;;;;7.15;1.62;;;;;;;32.26;28.38;99920.85;1788162;79;21148;-82
2021/07/15 13:53:17;;;;;;;;;;;;;;;32.28;29.58;99923.38;1791919;79;21175;-82
2021/07/15 13:56:29;;;;;;;8.38;1.02;;;;;;;32.26;28.07;99919.44;1785182;79;20285;-82
2021/07/15 13:59:36;;;;;;;5.95;1.87;;;;;;;32.25;28.34;99923.44;1791815;79;21552;-82
2021/07/15 14:02:42;;;;;;;9.38;1.72;;;;;;;32.24;28.22;99914.70;1788688;79;21148;-82
2021/07/15 14:05:49;;;;;;;2.77;1.27;;;;;;;32.25;30.20;99919.78;1785222;79;21251;-82
2021/07/15 14:08:55;;;;;;;4.72;1.42;;;;;;;32.23;30.07;99914.46;1789326;79;21136;-82
2021/07/15 14:12:02;;;;;;;2.90;1.35;;;;;;;32.22;30.45;99921.84;1791957;79;21212;-82
2021/07/15 14:15:08;;;;;;;10.68;1.52;;;;;;;32.19;31.09;99916.28;1790003;79;21239;-82
2021/07/15 14:18:24;;;;;;;3.30;1.15;;;;;;;32.15;28.98;99914.44;1785170;79;21256;-82
2021/07/15 14:21:30;;;;;;;4.25;1.27;;;;;;;32.13;28.28;99913.33;1765482;79;21852;-83
2021/07/15 14:24:37;;;;;;;8.15;1.30;;;;;;;32.13;28.48;99914.75;1767873;81;21354;-82
2021/07/15 14:27:43;;;;;;;7.00;1.50;;;;;;;32.09;27.67;99905.84;1769349;81;21181;-82
2021/07/15 14:30:49;;;;;;;3.65;1.12;;;;;;;32.08;29.15;99906.42;1774896;79;21181;-82
2021/07/15 14:33:55;;;;;;;6.87;1.17;;;;;;;32.04;27.91;99899.20;1768776;81;21204;-81
2021/07/15 14:37:02;;;;;;;8.08;1.20;;;;;;;32.02;29.41;99893.61;1769605;81;21368;-82
2021/07/15 16:13:15;;;;;;;8.30;1.67;;;;;;;30.82;33.60;99874.33;1831330;78;28046;-78